Terminal Aerodrome Forecast
Issued by NWS

Home | Current Version | Previous Version | Text Only | Print | Product List | Glossary Off
Versions: 1 2 3 4 5 6 7 8 9 10 11 12 13 14 15 16 17

000
FTUS43 KUNR 250601 AAA
TAFGCC
TAF AMD
KGCC 250601Z 2506/2606 VRB05KT P6SM SCT100
      TEMPO 2506/2508 4SM TSRA BKN050CB
     FM251300 33008KT P6SM SCT090=

USA.gov is the U.S. government's official web portal to all federal, state and local government web resources and services.